Time;durP1;ratioP1;P1;durP2;ratioP2;P2;SDS_P1;SDS_P2;PMS_P1;PMS_P2;Temp;Humidity;BMP_temperature;BMP_pressure;BME280_temperature;BME280_humidity;BME280_pressure;Samples;Min_cycle;Max_cycle;Signal;HPM_P1;HPM_P2
2020/12/08 00:00:57;;;;;;;6.18;2.88;;;10.00;53.20;;;;;;6247985;28;20151;-72
2020/12/08 00:03:58;;;;;;;8.07;2.75;;;9.90;53.50;;;;;;6230358;28;20033;-72
2020/12/08 00:06:59;;;;;;;6.22;2.53;;;9.80;53.60;;;;;;6246512;28;20049;-73
2020/12/08 00:10:00;;;;;;;6.20;2.95;;;9.80;53.50;;;;;;6254397;28;20423;-73
2020/12/08 00:13:00;;;;;;;4.50;2.30;;;9.80;53.40;;;;;;6248211;28;20052;-72
2020/12/08 00:16:04;;;;;;;8.02;2.88;;;9.80;53.60;;;;;;6258813;28;20099;-72
2020/12/08 00:19:05;;;;;;;5.65;2.67;;;9.80;53.60;;;;;;6253274;28;20140;-72
2020/12/08 00:22:07;;;;;;;5.97;3.42;;;9.80;53.70;;;;;;6249006;28;20079;-72
2020/12/08 00:25:09;;;;;;;6.38;3.05;;;9.80;53.80;;;;;;6258330;28;20041;-72
2020/12/08 00:28:10;;;;;;;7.55;2.92;;;9.80;54.10;;;;;;6239866;28;20498;-74
2020/12/08 00:31:10;;;;;;;6.57;2.80;;;9.80;54.20;;;;;;6255589;28;20082;-72
2020/12/08 00:34:11;;;;;;;5.63;2.80;;;9.80;54.40;;;;;;6257784;28;20096;-72
2020/12/08 00:37:12;;;;;;;6.10;2.83;;;9.70;55.10;;;;;;6256519;28;20061;-72
2020/12/08 00:40:14;;;;;;;9.98;3.33;;;9.70;54.70;;;;;;6259462;28;20032;-73
2020/12/08 00:43:14;;;;;;;10.50;3.20;;;9.60;54.70;;;;;;6267548;28;20048;-72
2020/12/08 00:46:16;;;;;;;6.45;3.05;;;9.60;54.80;;;;;;6268571;28;20045;-72
2020/12/08 00:49:18;;;;;;;5.88;3.03;;;9.60;55.50;;;;;;6207278;28;20034;-72
2020/12/08 00:52:19;;;;;;;10.95;3.17;;;9.60;55.10;;;;;;6226903;28;20462;-72
2020/12/08 00:55:20;;;;;;;9.27;3.38;;;9.50;55.10;;;;;;6243479;28;20053;-73
2020/12/08 00:58:24;;;;;;;6.45;3.00;;;9.50;55.20;;;;;;6228681;28;20037;-72
2020/12/08 01:01:25;;;;;;;8.27;3.20;;;9.60;55.30;;;;;;6245392;28;20044;-72
2020/12/08 01:04:30;;;;;;;6.53;3.20;;;9.60;55.30;;;;;;6246875;28;20052;-73
2020/12/08 01:07:31;;;;;;;5.80;2.97;;;9.50;55.40;;;;;;6244435;28;20108;-72
2020/12/08 01:10:33;;;;;;;6.22;2.75;;;9.50;55.50;;;;;;6266635;28;20063;-72
2020/12/08 01:13:34;;;;;;;6.68;2.97;;;9.50;55.70;;;;;;6298428;28;20040;-73
2020/12/08 01:16:39;;;;;;;7.22;3.30;;;9.40;55.80;;;;;;6286228;28;20038;-72
2020/12/08 01:19:41;;;;;;;5.35;2.45;;;9.40;55.90;;;;;;6246699;28;20037;-73
2020/12/08 01:22:51;;;;;;;8.40;3.00;;;9.40;56.00;;;;;;6244678;28;20470;-72
2020/12/08 01:25:52;;;;;;;5.95;3.42;;;9.40;56.00;;;;;;6228971;28;20103;-72
2020/12/08 01:28:53;;;;;;;6.70;3.35;;;9.40;56.10;;;;;;6244868;28;20046;-72
2020/12/08 01:31:57;;;;;;;6.90;2.85;;;9.40;56.20;;;;;;6244715;28;20113;-73
2020/12/08 01:34:58;;;;;;;8.15;3.75;;;9.40;56.10;;;;;;6243808;28;20482;-72
2020/12/08 01:37:59;;;;;;;7.65;2.75;;;9.40;56.00;;;;;;6244088;28;20463;-73
2020/12/08 01:41:00;;;;;;;5.70;2.75;;;9.40;56.10;;;;;;6251278;28;20080;-72
2020/12/08 01:44:02;;;;;;;8.95;3.20;;;9.30;56.20;;;;;;6236092;28;20041;-74
2020/12/08 01:47:04;;;;;;;5.70;3.33;;;9.30;56.40;;;;;;6246409;28;20038;-72
2020/12/08 01:50:07;;;;;;;4.47;2.65;;;9.20;56.50;;;;;;6244736;28;20033;-72
2020/12/08 01:53:12;;;;;;;4.30;2.72;;;9.20;56.60;;;;;;6244701;28;20056;-72
2020/12/08 01:56:19;;;;;;;8.10;3.05;;;9.20;56.70;;;;;;6245942;28;20077;-72
2020/12/08 01:59:25;;;;;;;7.20;3.30;;;9.00;57.00;;;;;;6244700;28;20033;-73
2020/12/08 02:02:44;;;;;;;7.35;3.38;;;9.00;57.40;;;;;;6230014;28;20030;-73
2020/12/08 02:06:08;;;;;;;8.38;2.53;;;9.00;57.50;;;;;;6245545;28;20045;-72
2020/12/08 02:09:09;;;;;;;7.60;2.72;;;8.90;57.50;;;;;;6228063;28;20397;-71
2020/12/08 02:12:11;;;;;;;7.93;3.33;;;8.90;57.70;;;;;;6228201;28;20079;-71
2020/12/08 02:15:16;;;;;;;5.40;2.67;;;8.90;57.80;;;;;;6244436;28;20128;-72
2020/12/08 02:18:21;;;;;;;9.65;3.17;;;8.90;58.00;;;;;;6228331;28;20055;-71
2020/12/08 02:21:30;;;;;;;5.32;2.60;;;8.80;58.10;;;;;;6240764;28;20450;-72
2020/12/08 02:24:32;;;;;;;6.47;3.15;;;8.80;58.10;;;;;;6267049;28;20411;-71
2020/12/08 02:27:33;;;;;;;6.20;2.13;;;8.90;58.70;;;;;;6270566;28;20029;-71
2020/12/08 02:30:39;;;;;;;8.23;2.97;;;8.90;57.90;;;;;;6269052;28;20040;-71
2020/12/08 02:33:40;;;;;;;5.38;2.40;;;9.00;57.80;;;;;;6268638;28;20067;-72
2020/12/08 02:36:42;;;;;;;7.80;3.17;;;9.00;57.70;;;;;;6267155;28;20043;-71
2020/12/08 02:39:43;;;;;;;7.43;2.50;;;9.00;57.60;;;;;;6267047;28;20040;-72
2020/12/08 02:42:44;;;;;;;5.93;3.05;;;9.00;57.50;;;;;;6252046;28;20370;-72
2020/12/08 02:45:46;;;;;;;5.68;2.78;;;9.00;57.50;;;;;;6252778;28;20084;-72
2020/12/08 02:48:47;;;;;;;5.45;2.70;;;9.00;57.20;;;;;;6245625;28;20044;-71
2020/12/08 02:51:56;;;;;;;9.82;3.58;;;9.00;57.10;;;;;;6247323;28;20041;-71
2020/12/08 02:54:57;;;;;;;6.50;2.70;;;9.00;57.20;;;;;;6249350;28;20041;-71
2020/12/08 02:57:58;;;;;;;7.80;3.30;;;8.90;57.10;;;;;;6249564;28;20056;-72
2020/12/08 03:00:59;;;;;;;5.47;2.80;;;8.90;57.20;;;;;;6232075;28;20095;-71
2020/12/08 03:04:00;;;;;;;6.15;3.13;;;8.90;57.30;;;;;;6273310;28;20056;-71
2020/12/08 03:07:04;;;;;;;6.25;2.90;;;8.80;57.30;;;;;;6242397;28;20036;-71
2020/12/08 03:10:07;;;;;;;5.57;2.85;;;8.90;57.40;;;;;;6272536;28;20059;-71
2020/12/08 03:13:11;;;;;;;7.75;3.03;;;8.80;57.50;;;;;;6256265;28;20128;-71
2020/12/08 03:16:18;;;;;;;6.68;2.92;;;8.70;57.50;;;;;;6256084;28;20040;-71
2020/12/08 03:19:26;;;;;;;8.35;2.70;;;8.80;57.60;;;;;;6225460;28;20501;-71
2020/12/08 03:22:28;;;;;;;3.95;2.33;;;8.70;57.50;;;;;;6217647;28;22117;-71
2020/12/08 03:25:31;;;;;;;3.55;2.28;;;8.70;57.60;;;;;;6247505;28;20034;-71
2020/12/08 03:28:38;;;;;;;5.00;2.67;;;8.70;57.60;;;;;;6247288;28;20037;-72
2020/12/08 03:36:01;;;;;;;3.38;1.95;;;8.70;57.70;;;;;;6272170;28;20470;-71
2020/12/08 03:39:02;;;;;;;9.15;2.58;;;8.70;57.50;;;;;;6255379;28;20082;-72
2020/12/08 03:42:08;;;;;;;3.95;2.10;;;8.60;57.50;;;;;;6271953;28;20037;-72
2020/12/08 03:45:12;;;;;;;4.28;1.90;;;8.60;57.70;;;;;;6255808;28;20037;-71
2020/12/08 03:48:26;;;;;;;7.63;2.78;;;8.60;57.80;;;;;;6246655;28;20086;-72
2020/12/08 03:51:28;;;;;;;8.55;3.20;;;8.50;57.90;;;;;;6247188;28;20034;-72
2020/12/08 03:54:35;;;;;;;8.48;2.75;;;8.50;57.90;;;;;;6246874;28;20108;-71
2020/12/08 03:57:40;;;;;;;6.25;3.25;;;8.50;58.00;;;;;;6230670;28;20030;-72
2020/12/08 04:00:45;;;;;;;5.50;2.83;;;8.50;58.10;;;;;;6232116;28;20057;-71
2020/12/08 04:03:47;;;;;;;10.20;3.38;;;8.50;58.10;;;;;;6270571;28;20052;-72
2020/12/08 04:06:48;;;;;;;6.53;2.97;;;8.40;58.10;;;;;;6271882;28;20052;-72
2020/12/08 04:09:49;;;;;;;4.18;2.50;;;8.50;58.20;;;;;;6255428;28;20484;-72
2020/12/08 04:12:50;;;;;;;5.50;2.90;;;8.50;58.20;;;;;;6255207;28;20397;-72
2020/12/08 04:15:52;;;;;;;4.72;2.70;;;8.40;58.20;;;;;;6264013;28;20073;-72
2020/12/08 04:18:53;;;;;;;3.70;2.33;;;8.40;58.20;;;;;;6247479;28;20428;-71
2020/12/08 04:22:01;;;;;;;3.90;2.10;;;8.40;58.30;;;;;;6247654;28;20045;-72
2020/12/08 04:25:15;;;;;;;4.78;2.15;;;8.40;58.30;;;;;;6228861;28;20484;-72
2020/12/08 04:28:16;;;;;;;6.20;2.50;;;8.40;58.30;;;;;;6247447;28;20037;-72
2020/12/08 04:31:17;;;;;;;11.50;2.92;;;8.40;58.30;;;;;;6252243;28;20044;-72
2020/12/08 04:34:18;;;;;;;3.70;2.33;;;8.40;58.30;;;;;;6272000;28;20033;-72
2020/12/08 04:37:19;;;;;;;6.88;2.40;;;8.40;58.40;;;;;;6270762;28;20044;-72
2020/12/08 04:40:21;;;;;;;12.20;2.78;;;8.30;58.40;;;;;;6271990;28;20401;-71
2020/12/08 04:43:21;;;;;;;5.97;3.17;;;8.30;58.50;;;;;;6271556;28;20086;-72
2020/12/08 04:46:24;;;;;;;5.80;3.00;;;8.30;58.60;;;;;;6252157;28;20119;-72
2020/12/08 04:49:26;;;;;;;8.05;3.78;;;8.30;58.60;;;;;;6247299;28;20518;-72
2020/12/08 04:52:27;;;;;;;6.55;3.17;;;8.20;58.70;;;;;;6246053;28;20049;-72
2020/12/08 04:55:27;;;;;;;6.85;3.00;;;8.20;58.70;;;;;;6245700;28;20045;-72
2020/12/08 04:58:29;;;;;;;8.13;3.08;;;8.30;58.80;;;;;;6228980;28;20037;-72
2020/12/08 05:01:30;;;;;;;8.98;3.88;;;8.20;58.80;;;;;;6265997;28;20033;-72
2020/12/08 05:04:31;;;;;;;14.57;3.30;;;8.20;58.80;;;;;;6270465;28;20041;-72
2020/12/08 05:07:31;;;;;;;6.57;2.63;;;8.20;58.90;;;;;;6271170;28;20033;-72
2020/12/08 05:10:32;;;;;;;6.80;3.17;;;8.10;58.90;;;;;;6269284;28;20102;-71
2020/12/08 05:13:33;;;;;;;4.07;2.55;;;8.10;58.90;;;;;;6269895;28;20052;-72
2020/12/08 05:16:34;;;;;;;6.97;3.05;;;8.10;59.00;;;;;;6269655;28;20090;-72
2020/12/08 05:19:35;;;;;;;5.07;3.25;;;8.10;59.10;;;;;;6271033;28;20122;-72
2020/12/08 05:22:37;;;;;;;6.80;3.05;;;8.10;59.10;;;;;;6271099;28;20044;-72
2020/12/08 05:25:38;;;;;;;6.75;3.05;;;8.00;59.10;;;;;;6271290;28;20037;-71
2020/12/08 05:28:40;;;;;;;5.72;3.17;;;8.00;59.20;;;;;;6268549;28;20041;-73
2020/12/08 05:31:41;;;;;;;7.97;3.92;;;8.00;59.30;;;;;;6269474;28;20051;-71
2020/12/08 05:34:46;;;;;;;8.70;3.55;;;8.00;59.30;;;;;;6269686;28;20032;-72
2020/12/08 05:37:50;;;;;;;7.53;3.55;;;8.00;59.40;;;;;;6269931;28;20051;-72
2020/12/08 05:40:51;;;;;;;7.22;3.65;;;8.00;59.50;;;;;;6268693;28;20036;-72
2020/12/08 05:44:02;;;;;;;6.45;3.38;;;7.90;59.70;;;;;;6269167;28;20041;-72
2020/12/08 05:47:04;;;;;;;11.80;3.55;;;7.80;59.80;;;;;;6262369;28;20030;-72
2020/12/08 05:50:06;;;;;;;10.15;3.65;;;7.80;60.00;;;;;;6244617;28;20034;-72
2020/12/08 05:53:11;;;;;;;11.43;3.67;;;7.70;60.10;;;;;;6246138;28;20051;-71
2020/12/08 05:56:12;;;;;;;4.75;2.97;;;7.70;60.40;;;;;;6245780;28;20034;-72
2020/12/08 05:59:27;;;;;;;8.60;3.40;;;7.70;60.50;;;;;;6244720;28;20343;-71
2020/12/08 06:02:31;;;;;;;7.47;3.60;;;7.70;60.60;;;;;;6261148;28;20029;-71
2020/12/08 06:05:33;;;;;;;6.50;3.20;;;7.70;60.70;;;;;;6268854;28;20037;-72
2020/12/08 06:08:44;;;;;;;7.63;3.22;;;7.70;60.80;;;;;;6269167;28;20118;-72
2020/12/08 06:11:45;;;;;;;7.25;3.28;;;7.70;61.00;;;;;;6252608;28;20052;-71
2020/12/08 06:14:46;;;;;;;5.25;3.17;;;7.70;61.10;;;;;;6268925;28;20056;-72
2020/12/08 06:17:47;;;;;;;6.00;3.38;;;7.70;61.10;;;;;;6255750;28;20064;-72
2020/12/08 06:20:48;;;;;;;6.97;3.30;;;7.70;61.20;;;;;;6246273;28;20045;-73
2020/12/08 06:23:51;;;;;;;5.35;2.78;;;7.70;61.30;;;;;;6250352;28;20045;-73
2020/12/08 06:26:53;;;;;;;5.80;2.42;;;7.70;61.20;;;;;;6248947;28;20029;-72
2020/12/08 06:29:55;;;;;;;8.80;3.65;;;7.70;61.10;;;;;;6232517;28;20102;-72
2020/12/08 06:32:59;;;;;;;8.10;3.13;;;7.70;61.10;;;;;;6268383;28;20033;-72
2020/12/08 06:36:01;;;;;;;6.75;3.10;;;7.70;61.20;;;;;;6273682;28;20079;-73
2020/12/08 06:39:07;;;;;;;5.43;2.65;;;7.60;61.30;;;;;;6273284;28;20036;-72
2020/12/08 06:42:14;;;;;;;4.45;2.65;;;7.60;61.40;;;;;;6273186;28;20139;-71
2020/12/08 06:45:21;;;;;;;8.60;3.58;;;7.60;61.30;;;;;;6273442;28;20047;-71
2020/12/08 06:48:22;;;;;;;7.07;3.13;;;7.60;61.30;;;;;;6238822;28;20037;-73
2020/12/08 06:51:24;;;;;;;6.55;3.13;;;7.60;61.50;;;;;;6247926;28;20037;-74
2020/12/08 06:54:25;;;;;;;6.00;3.10;;;7.50;61.40;;;;;;6249586;28;20047;-74
2020/12/08 06:57:26;;;;;;;4.53;2.85;;;7.50;61.50;;;;;;6291570;28;20441;-73
2020/12/08 07:00:27;;;;;;;8.30;2.88;;;7.40;61.50;;;;;;6297957;28;20044;-72
2020/12/08 07:03:28;;;;;;;5.35;3.30;;;7.40;61.70;;;;;;6272863;28;20045;-73
2020/12/08 07:06:29;;;;;;;9.63;3.17;;;7.30;61.80;;;;;;6247858;28;20496;-75
2020/12/08 07:09:33;;;;;;;10.25;3.45;;;7.30;61.90;;;;;;6272884;28;20077;-73
2020/12/08 07:13:00;;;;;;;7.95;3.17;;;7.30;62.10;;;;;;6272674;28;20350;-73
2020/12/08 07:16:02;;;;;;;8.15;3.70;;;7.30;62.30;;;;;;6248821;28;20501;-73
2020/12/08 07:19:05;;;;;;;6.95;3.35;;;7.30;62.20;;;;;;6230207;28;20057;-72
2020/12/08 07:22:08;;;;;;;10.43;3.33;;;7.30;62.20;;;;;;6239223;28;20532;-75
2020/12/08 07:25:11;;;;;;;5.57;3.35;;;7.40;62.30;;;;;;6229234;28;20052;-73
2020/12/08 07:28:12;;;;;;;6.25;3.55;;;7.30;62.30;;;;;;6246408;28;20038;-73
2020/12/08 07:31:24;;;;;;;15.38;3.22;;;7.30;62.30;;;;;;6251553;28;20040;-73
2020/12/08 07:34:25;;;;;;;9.20;3.97;;;7.40;62.40;;;;;;6269410;28;20121;-73
2020/12/08 07:37:26;;;;;;;8.85;3.78;;;7.40;62.40;;;;;;6254336;28;20049;-73
2020/12/08 07:40:36;;;;;;;9.15;4.45;;;7.40;62.50;;;;;;6270769;28;20373;-72
2020/12/08 07:43:37;;;;;;;9.55;3.97;;;7.40;62.50;;;;;;6270400;28;20048;-73
2020/12/08 07:46:48;;;;;;;10.00;4.95;;;7.50;62.50;;;;;;6266322;28;20323;-75
2020/12/08 07:49:49;;;;;;;8.10;3.70;;;7.60;62.40;;;;;;6246080;28;20037;-74
2020/12/08 07:53:06;;;;;;;13.88;4.90;;;7.60;62.20;;;;;;6244368;28;20528;-73
2020/12/08 07:56:06;;;;;;;9.15;3.65;;;7.70;62.20;;;;;;6244009;28;20467;-76
2020/12/08 07:59:08;;;;;;;12.98;4.72;;;7.70;62.00;;;;;;6245832;28;20033;-73
2020/12/08 08:02:09;;;;;;;12.07;4.50;;;7.80;61.90;;;;;;6259612;28;20040;-73
2020/12/08 08:05:11;;;;;;;10.27;4.60;;;7.80;61.90;;;;;;6270120;28;20033;-74
2020/12/08 08:08:12;;;;;;;10.73;4.95;;;7.80;61.70;;;;;;6258155;28;20047;-74
2020/12/08 08:11:13;;;;;;;7.38;3.80;;;7.80;61.60;;;;;;6259063;28;20366;-75
2020/12/08 08:14:14;;;;;;;12.82;5.15;;;7.80;61.60;;;;;;6259034;28;20053;-73
2020/12/08 08:17:15;;;;;;;12.88;3.97;;;7.90;61.60;;;;;;6256925;28;20519;-73
2020/12/08 08:20:16;;;;;;;8.00;4.15;;;7.90;61.50;;;;;;6257528;28;20116;-74
2020/12/08 08:23:17;;;;;;;10.00;4.70;;;7.90;61.40;;;;;;6251740;28;20051;-73
2020/12/08 08:26:18;;;;;;;7.00;3.70;;;8.00;61.30;;;;;;6253139;28;20037;-73
2020/12/08 08:29:19;;;;;;;9.75;4.25;;;8.00;61.10;;;;;;6258379;28;20040;-73
2020/12/08 08:32:20;;;;;;;11.70;4.00;;;8.10;61.10;;;;;;6252137;28;20382;-73
2020/12/08 08:35:21;;;;;;;6.60;3.22;;;8.10;60.90;;;;;;6237540;28;20032;-73
2020/12/08 08:38:26;;;;;;;9.02;4.80;;;8.10;60.80;;;;;;6258983;28;20036;-73
2020/12/08 08:41:27;;;;;;;10.15;4.25;;;8.10;60.80;;;;;;6238444;28;20040;-72
2020/12/08 08:44:28;;;;;;;12.07;4.57;;;8.20;60.90;;;;;;6256623;28;20041;-73
2020/12/08 08:47:29;;;;;;;9.77;4.45;;;8.20;60.80;;;;;;6255830;28;20063;-73
2020/12/08 08:50:30;;;;;;;12.65;5.25;;;8.30;60.70;;;;;;6265955;28;20030;-72
2020/12/08 08:53:31;;;;;;;10.63;4.75;;;8.30;60.50;;;;;;6269900;28;20041;-74
2020/12/08 08:56:32;;;;;;;10.85;4.93;;;8.40;60.40;;;;;;6281502;28;20043;-74
2020/12/08 08:59:32;;;;;;;10.63;4.88;;;8.50;60.20;;;;;;6274339;28;20412;-74
2020/12/08 09:02:34;;;;;;;8.23;4.13;;;8.50;60.10;;;;;;6285174;28;20044;-74
2020/12/08 09:05:35;;;;;;;13.80;6.13;;;8.50;60.00;;;;;;6258885;28;20421;-73
2020/12/08 09:08:36;;;;;;;12.05;5.25;;;8.60;59.80;;;;;;6257564;28;20040;-73
2020/12/08 09:11:37;;;;;;;11.23;5.40;;;8.60;59.70;;;;;;6259498;28;20124;-74
2020/12/08 09:14:38;;;;;;;12.98;4.75;;;8.70;60.40;;;;;;6257326;28;20047;-73
2020/12/08 09:17:39;;;;;;;9.88;4.97;;;8.70;59.50;;;;;;6238263;28;20470;-75
2020/12/08 09:20:40;;;;;;;12.43;5.45;;;8.70;59.40;;;;;;6244457;28;20033;-74
2020/12/08 09:23:40;;;;;;;13.40;5.68;;;8.60;59.30;;;;;;6245802;28;20083;-75
2020/12/08 09:26:41;;;;;;;9.68;4.78;;;8.60;59.40;;;;;;6226860;28;20061;-74
2020/12/08 09:29:43;;;;;;;10.20;6.20;;;8.60;59.40;;;;;;6230870;28;20032;-74
2020/12/08 09:32:44;;;;;;;13.48;5.97;;;8.50;59.50;;;;;;6265424;28;20153;-73
2020/12/08 09:35:45;;;;;;;14.05;5.82;;;8.50;59.60;;;;;;6268364;28;20090;-74
2020/12/08 09:38:46;;;;;;;15.10;5.75;;;8.50;59.70;;;;;;6251198;28;20048;-76
2020/12/08 09:41:48;;;;;;;12.13;5.65;;;8.40;59.70;;;;;;6265464;28;20025;-74
2020/12/08 09:44:49;;;;;;;17.50;6.05;;;8.40;59.90;;;;;;6268723;28;20095;-73
2020/12/08 09:47:50;;;;;;;10.25;5.72;;;8.30;60.00;;;;;;6239769;28;20058;-74
2020/12/08 09:50:51;;;;;;;16.40;7.35;;;8.40;60.40;;;;;;6228078;28;20036;-75
2020/12/08 09:53:53;;;;;;;14.60;6.15;;;8.40;60.80;;;;;;6245233;28;20049;-74
2020/12/08 09:56:54;;;;;;;14.82;6.30;;;8.70;60.80;;;;;;6243680;28;20041;-74
2020/12/08 09:59:55;;;;;;;14.70;7.30;;;8.90;60.20;;;;;;6243357;28;20470;-73
2020/12/08 10:02:57;;;;;;;19.58;7.95;;;9.10;59.60;;;;;;6259818;28;20047;-74
2020/12/08 10:05:58;;;;;;;17.13;8.95;;;9.30;59.40;;;;;;6260238;28;20406;-73
2020/12/08 10:08:59;;;;;;;23.20;9.45;;;9.50;59.10;;;;;;6268928;28;20048;-74
2020/12/08 10:12:00;;;;;;;19.52;7.05;;;9.80;58.50;;;;;;6268341;28;20081;-74
2020/12/08 10:15:01;;;;;;;24.95;9.65;;;10.00;58.00;;;;;;6268905;28;20052;-75
2020/12/08 10:18:02;;;;;;;22.13;8.75;;;10.10;57.20;;;;;;6252142;28;20162;-73
2020/12/08 10:21:03;;;;;;;17.60;7.47;;;10.20;57.10;;;;;;6227369;28;20038;-72
2020/12/08 10:24:29;;;;;;;13.27;6.38;;;10.40;57.00;;;;;;6244397;28;20038;-71
2020/12/08 10:27:30;;;;;;;14.88;7.18;;;10.60;56.50;;;;;;6248747;28;20169;-73
2020/12/08 10:30:31;;;;;;;19.20;7.85;;;10.70;56.20;;;;;;6249936;28;20057;-74
2020/12/08 10:33:32;;;;;;;18.98;6.95;;;10.90;55.80;;;;;;6251137;28;20046;-72
2020/12/08 10:36:32;;;;;;;16.13;7.53;;;11.20;55.60;;;;;;6226856;28;20410;-71
2020/12/08 10:39:34;;;;;;;15.05;7.22;;;11.40;54.90;;;;;;6242510;28;20065;-74
2020/12/08 10:42:34;;;;;;;16.50;7.95;;;11.70;54.60;;;;;;6242832;28;20340;-72
2020/12/08 10:45:35;;;;;;;32.40;8.48;;;11.90;54.10;;;;;;6233613;28;20518;-72
2020/12/08 10:48:39;;;;;;;16.02;7.22;;;12.20;53.70;;;;;;6252704;28;20033;-73
2020/12/08 10:51:40;;;;;;;26.55;9.65;;;12.30;52.50;;;;;;6268670;28;20481;-73
2020/12/08 10:54:41;;;;;;;30.80;12.70;;;12.40;52.00;;;;;;6270589;28;20091;-72
2020/12/08 10:57:42;;;;;;;26.02;10.15;;;12.30;51.90;;;;;;6267645;28;20374;-73
2020/12/08 11:00:42;;;;;;;29.33;10.13;;;12.30;51.50;;;;;;6266094;28;20052;-73
2020/12/08 11:03:43;;;;;;;21.20;8.38;;;12.20;51.70;;;;;;6242420;28;20488;-73
2020/12/08 11:06:45;;;;;;;17.10;8.30;;;12.10;51.70;;;;;;6242413;28;20029;-70
2020/12/08 11:09:46;;;;;;;14.73;7.38;;;12.00;52.20;;;;;;6262699;28;20037;-69
2020/12/08 11:12:47;;;;;;;16.15;6.97;;;12.00;52.10;;;;;;6271449;28;20044;-70
2020/12/08 11:15:48;;;;;;;19.98;9.32;;;11.90;52.40;;;;;;6262377;28;20037;-72
2020/12/08 11:18:50;;;;;;;17.40;7.47;;;11.90;52.60;;;;;;6231497;28;20100;-73
2020/12/08 11:21:51;;;;;;;21.65;9.57;;;12.00;52.40;;;;;;6251385;28;20038;-73
2020/12/08 11:24:52;;;;;;;20.83;9.75;;;11.90;51.80;;;;;;6249249;28;20043;-73
2020/12/08 11:27:53;;;;;;;22.67;11.38;;;11.90;52.20;;;;;;6251448;28;20037;-73
2020/12/08 11:30:55;;;;;;;20.83;9.40;;;11.70;52.20;;;;;;6246421;28;20439;-71
2020/12/08 11:33:56;;;;;;;16.88;7.38;;;11.70;52.40;;;;;;6241344;28;20522;-70
2020/12/08 11:36:57;;;;;;;12.40;5.57;;;11.70;52.60;;;;;;6271620;28;20056;-71
2020/12/08 11:39:58;;;;;;;19.02;9.45;;;11.60;52.80;;;;;;6266406;28;20178;-69
2020/12/08 11:43:00;;;;;;;19.05;7.38;;;11.70;53.10;;;;;;6229697;28;20423;-70
2020/12/08 11:46:01;;;;;;;12.38;6.10;;;11.70;53.00;;;;;;6246141;28;20088;-71
2020/12/08 11:49:02;;;;;;;35.80;15.27;;;11.80;52.90;;;;;;6248899;28;20363;-72
2020/12/08 11:52:05;;;;;;;31.38;11.85;;;11.80;52.80;;;;;;6251329;28;20352;-74
2020/12/08 11:55:06;;;;;;;13.73;6.90;;;11.70;52.60;;;;;;6250655;28;20132;-72
2020/12/08 11:58:07;;;;;;;12.25;6.63;;;11.70;52.80;;;;;;6259401;28;20178;-74
2020/12/08 12:01:08;;;;;;;13.88;6.72;;;11.70;53.10;;;;;;6262269;28;20033;-73
2020/12/08 12:04:09;;;;;;;19.92;6.60;;;11.70;53.10;;;;;;6247036;28;20351;-73
2020/12/08 12:07:10;;;;;;;14.68;6.28;;;11.80;53.10;;;;;;6248134;28;20469;-75
2020/12/08 12:10:12;;;;;;;15.27;5.97;;;11.90;53.00;;;;;;6236553;28;20041;-73
2020/12/08 12:13:12;;;;;;;15.60;6.13;;;11.90;52.80;;;;;;6263826;28;20061;-73
2020/12/08 12:16:16;;;;;;;17.70;7.63;;;11.90;52.80;;;;;;6257105;28;20183;-73
2020/12/08 12:19:17;;;;;;;18.63;7.40;;;11.90;53.40;;;;;;6256386;28;20040;-73
2020/12/08 12:22:18;;;;;;;14.68;6.70;;;11.90;53.00;;;;;;6263262;28;20037;-75
2020/12/08 12:25:19;;;;;;;17.05;6.28;;;11.90;53.00;;;;;;6238943;28;20076;-73
2020/12/08 12:28:20;;;;;;;30.17;13.35;;;11.90;52.90;;;;;;6268127;28;20138;-70
2020/12/08 12:31:22;;;;;;;11.52;6.32;;;12.00;53.10;;;;;;6268688;28;20446;-70
2020/12/08 12:34:22;;;;;;;16.50;7.13;;;12.00;53.00;;;;;;6271446;28;20048;-70
2020/12/08 12:37:24;;;;;;;15.65;6.38;;;12.00;52.90;;;;;;6270032;28;20073;-71
2020/12/08 12:40:24;;;;;;;14.30;6.22;;;12.00;53.00;;;;;;6245023;28;20099;-71
2020/12/08 12:43:25;;;;;;;12.02;6.72;;;12.00;52.90;;;;;;6266966;28;20366;-71
2020/12/08 12:46:27;;;;;;;15.73;7.22;;;12.00;53.00;;;;;;6267431;28;20036;-71
2020/12/08 12:49:29;;;;;;;12.50;6.38;;;11.90;52.80;;;;;;6244985;28;20041;-71
2020/12/08 12:52:31;;;;;;;12.85;6.63;;;11.90;53.00;;;;;;6240005;28;20455;-71
2020/12/08 12:55:32;;;;;;;15.93;6.72;;;11.90;53.20;;;;;;6245244;28;20060;-72
2020/12/08 12:58:35;;;;;;;14.82;6.88;;;11.90;53.20;;;;;;6262573;28;20032;-72
2020/12/08 13:01:36;;;;;;;15.70;6.10;;;12.00;53.20;;;;;;6253333;28;20030;-72
2020/12/08 13:04:37;;;;;;;17.02;7.18;;;11.90;53.20;;;;;;6244519;28;20029;-72
2020/12/08 13:07:38;;;;;;;14.18;6.25;;;11.90;53.20;;;;;;6244985;28;20030;-71
2020/12/08 13:10:39;;;;;;;14.77;7.00;;;11.90;53.30;;;;;;6204304;28;20058;-71
2020/12/08 13:13:40;;;;;;;9.20;5.43;;;11.90;53.40;;;;;;6218624;28;20429;-71
2020/12/08 13:16:41;;;;;;;14.45;6.18;;;11.90;53.40;;;;;;6204694;28;20071;-71
2020/12/08 13:19:42;;;;;;;12.60;6.57;;;11.90;53.50;;;;;;6244707;28;20406;-71
2020/12/08 13:22:43;;;;;;;12.57;6.25;;;11.90;53.50;;;;;;6244754;28;20116;-71
2020/12/08 13:25:46;;;;;;;17.67;6.93;;;11.90;53.50;;;;;;6244808;28;20489;-70
2020/12/08 13:28:47;;;;;;;12.18;5.97;;;11.80;53.60;;;;;;6243445;28;20124;-71
2020/12/08 13:31:48;;;;;;;12.98;6.50;;;11.80;53.70;;;;;;6253982;28;20093;-71
2020/12/08 13:34:49;;;;;;;11.60;5.78;;;11.90;53.80;;;;;;6252253;28;20044;-70
2020/12/08 13:37:50;;;;;;;12.52;7.38;;;11.90;53.80;;;;;;6270432;28;20045;-71
2020/12/08 13:40:51;;;;;;;14.00;6.15;;;11.90;53.80;;;;;;6269129;28;20064;-71
2020/12/08 13:43:53;;;;;;;14.60;6.38;;;11.90;53.90;;;;;;6269314;28;20040;-71
2020/12/08 13:46:57;;;;;;;12.93;6.15;;;11.90;53.90;;;;;;6264960;28;20040;-71
2020/12/08 13:49:58;;;;;;;14.63;6.35;;;11.90;53.90;;;;;;6243366;28;20072;-73
2020/12/08 13:52:59;;;;;;;17.13;6.45;;;11.90;53.90;;;;;;6243189;28;20136;-72
2020/12/08 13:56:00;;;;;;;16.95;7.25;;;11.90;54.00;;;;;;6244367;28;20155;-71
2020/12/08 13:59:01;;;;;;;19.60;6.93;;;11.90;54.00;;;;;;6245349;28;20463;-73
2020/12/08 14:02:02;;;;;;;16.67;6.85;;;11.90;54.00;;;;;;6235198;28;20100;-73
2020/12/08 14:05:03;;;;;;;12.05;6.20;;;11.90;54.00;;;;;;6220542;28;20045;-73
2020/12/08 14:08:04;;;;;;;13.30;6.78;;;11.90;54.00;;;;;;6234738;28;20398;-72
2020/12/08 14:11:06;;;;;;;15.88;6.38;;;11.90;54.10;;;;;;6245367;28;20045;-72
2020/12/08 14:14:07;;;;;;;11.90;6.55;;;11.80;54.10;;;;;;6241622;28;20102;-72
2020/12/08 14:17:08;;;;;;;14.55;6.65;;;11.80;54.00;;;;;;6243172;28;20033;-73
2020/12/08 14:20:11;;;;;;;16.15;6.40;;;11.70;53.90;;;;;;6241695;28;20411;-73
2020/12/08 14:23:12;;;;;;;16.77;6.53;;;11.60;54.00;;;;;;6249196;28;20121;-73
2020/12/08 14:26:13;;;;;;;12.60;6.63;;;11.50;54.10;;;;;;6245011;28;20034;-74
2020/12/08 14:29:14;;;;;;;18.77;6.55;;;11.50;54.20;;;;;;6244584;28;20041;-72
2020/12/08 14:32:15;;;;;;;18.58;7.50;;;11.50;54.40;;;;;;6259007;28;20033;-72
2020/12/08 14:35:16;;;;;;;24.20;7.63;;;11.50;54.40;;;;;;6268836;28;20420;-73
2020/12/08 14:38:17;;;;;;;14.85;6.78;;;11.50;54.50;;;;;;6269572;28;20405;-72
2020/12/08 14:41:18;;;;;;;16.20;7.07;;;11.50;54.50;;;;;;6269457;28;20354;-73
2020/12/08 14:44:19;;;;;;;17.90;6.85;;;11.50;54.60;;;;;;6273796;28;20411;-72
2020/12/08 14:47:20;;;;;;;18.38;7.00;;;11.50;54.60;;;;;;6258198;28;20029;-74
2020/12/08 14:50:21;;;;;;;18.27;6.90;;;11.50;54.70;;;;;;6274182;28;20055;-72
2020/12/08 14:53:21;;;;;;;23.00;6.57;;;11.50;54.70;;;;;;6277300;28;20052;-72
2020/12/08 14:56:24;;;;;;;16.10;6.75;;;11.50;54.70;;;;;;6276818;28;20035;-71
2020/12/08 14:59:26;;;;;;;21.20;6.63;;;11.50;54.80;;;;;;6277407;28;20091;-71
2020/12/08 15:02:26;;;;;;;12.60;6.70;;;11.40;54.80;;;;;;6299419;28;20461;-73
2020/12/08 15:05:28;;;;;;;16.00;6.22;;;11.40;55.00;;;;;;6281762;28;20037;-72
2020/12/08 15:08:29;;;;;;;13.20;6.95;;;11.30;55.10;;;;;;6298661;28;20056;-74
2020/12/08 15:11:31;;;;;;;11.98;6.18;;;11.30;55.30;;;;;;6281712;28;20425;-72
2020/12/08 15:14:32;;;;;;;10.43;5.65;;;11.30;55.40;;;;;;6281767;28;20052;-73
2020/12/08 15:17:33;;;;;;;12.13;5.78;;;11.30;55.40;;;;;;6286238;28;20029;-74
2020/12/08 15:20:34;;;;;;;16.95;6.68;;;11.40;55.50;;;;;;6250365;28;20348;-76
2020/12/08 15:23:34;;;;;;;11.52;6.65;;;11.40;55.50;;;;;;6265694;28;20025;-73
2020/12/08 15:26:37;;;;;;;13.63;6.78;;;11.50;55.70;;;;;;6274471;28;20431;-73
2020/12/08 15:29:38;;;;;;;10.80;5.78;;;11.50;55.80;;;;;;6273509;28;20059;-74
2020/12/08 15:32:39;;;;;;;16.98;6.38;;;11.50;55.90;;;;;;6274224;28;20037;-75
2020/12/08 15:35:40;;;;;;;13.43;7.38;;;11.50;55.90;;;;;;6256624;28;20037;-73
2020/12/08 15:38:41;;;;;;;15.77;7.38;;;11.50;55.90;;;;;;6272898;28;20056;-73
2020/12/08 15:41:42;;;;;;;10.13;5.95;;;11.50;56.00;;;;;;6273292;28;20025;-72
2020/12/08 15:44:43;;;;;;;11.90;6.25;;;11.50;56.00;;;;;;6272511;28;20040;-72
2020/12/08 15:47:45;;;;;;;17.58;6.28;;;11.50;56.00;;;;;;6259620;28;20072;-72
2020/12/08 15:50:46;;;;;;;10.85;5.40;;;11.50;56.10;;;;;;6247155;28;20037;-71
2020/12/08 15:53:48;;;;;;;13.88;5.03;;;11.50;56.20;;;;;;6248343;28;20046;-73